Time;durP1;ratioP1;P1;durP2;ratioP2;P2;SDS_P1;SDS_P2;PMS_P1;PMS_P2;Temp;Humidity;BMP_temperature;BMP_pressure;BME280_temperature;BME280_humidity;BME280_pressure;Samples;Min_cycle;Max_cycle;Signal;HPM_P1;HPM_P2
2022/07/26 00:03:00;;;;;;;5.40;3.00;;;;;;;;;;6003458;29;20038;-81
2022/07/26 00:06:01;;;;;;;5.78;2.83;;;;;;;;;;6023148;29;20512;-81
2022/07/26 00:09:03;;;;;;;7.78;3.20;;;;;;;;;;6007408;29;20055;-81
2022/07/26 00:12:06;;;;;;;4.10;2.75;;;;;;;;;;6005456;29;20041;-82
2022/07/26 00:15:10;;;;;;;5.70;3.13;;;;;;;;;;6009878;29;20053;-81
2022/07/26 00:18:13;;;;;;;6.47;3.03;;;;;;;;;;6008757;29;20137;-82
2022/07/26 00:24:53;;;;;;;6.32;3.30;;;;;;;;;;6009164;29;20124;-81
2022/07/26 00:27:55;;;;;;;4.18;3.10;;;;;;;;;;6021205;29;20800;-81
2022/07/26 00:30:57;;;;;;;9.18;3.30;;;;;;;;;;5990609;29;20045;-82
2022/07/26 00:33:59;;;;;;;4.45;3.58;;;;;;;;;;6022233;29;20136;-82
2022/07/26 00:37:00;;;;;;;5.47;3.30;;;;;;;;;;6003131;29;20069;-82
2022/07/26 00:40:03;;;;;;;5.93;3.38;;;;;;;;;;6026153;29;20041;-81
2022/07/26 00:43:05;;;;;;;5.25;3.10;;;;;;;;;;6025457;29;20106;-81
2022/07/26 00:46:06;;;;;;;4.13;2.58;;;;;;;;;;6024750;29;20109;-82
2022/07/26 00:49:09;;;;;;;5.65;3.00;;;;;;;;;;6000890;29;20187;-81
2022/07/26 00:52:12;;;;;;;7.25;3.33;;;;;;;;;;6025099;29;20037;-80
2022/07/26 00:55:14;;;;;;;4.03;3.00;;;;;;;;;;6021429;29;20057;-81
2022/07/26 00:58:17;;;;;;;4.80;2.85;;;;;;;;;;6023101;29;20573;-82
2022/07/26 01:01:18;;;;;;;4.40;2.75;;;;;;;;;;6004834;29;20097;-81
2022/07/26 01:04:21;;;;;;;6.10;3.30;;;;;;;;;;6000049;29;20087;-82
2022/07/26 01:07:22;;;;;;;5.28;3.60;;;;;;;;;;6009158;29;20074;-82
2022/07/26 01:10:24;;;;;;;5.95;3.40;;;;;;;;;;6004310;29;20511;-81
2022/07/26 01:13:26;;;;;;;4.63;3.10;;;;;;;;;;6003698;29;20046;-80
2022/07/26 01:16:33;;;;;;;4.50;3.15;;;;;;;;;;6018451;29;20050;-82
2022/07/26 01:19:35;;;;;;;7.47;3.25;;;;;;;;;;6001547;29;20057;-82
2022/07/26 01:22:37;;;;;;;4.78;3.08;;;;;;;;;;6005620;29;20053;-82
2022/07/26 01:25:39;;;;;;;4.50;3.10;;;;;;;;;;6012993;29;20128;-81
2022/07/26 01:28:48;;;;;;;4.57;3.38;;;;;;;;;;6011032;29;20041;-82
2022/07/26 01:31:50;;;;;;;6.70;3.60;;;;;;;;;;6029510;29;20057;-82
2022/07/26 01:34:52;;;;;;;5.90;2.90;;;;;;;;;;6023573;29;20068;-82
2022/07/26 01:37:53;;;;;;;5.65;2.90;;;;;;;;;;6003596;29;20136;-82
2022/07/26 01:40:55;;;;;;;7.70;3.03;;;;;;;;;;6027944;29;20176;-82
2022/07/26 01:43:56;;;;;;;7.95;3.60;;;;;;;;;;6025089;29;20063;-81
2022/07/26 01:46:58;;;;;;;6.20;3.80;;;;;;;;;;6008826;29;20128;-82
2022/07/26 01:49:59;;;;;;;5.75;3.63;;;;;;;;;;6025164;29;20070;-82
2022/07/26 01:53:01;;;;;;;6.47;3.20;;;;;;;;;;6006925;29;20060;-82
2022/07/26 01:56:07;;;;;;;7.65;3.80;;;;;;;;;;6003187;29;20034;-82
2022/07/26 01:59:08;;;;;;;7.57;3.03;;;;;;;;;;6023050;29;20075;-82
2022/07/26 02:02:10;;;;;;;5.18;2.80;;;;;;;;;;6002491;29;20053;-82
2022/07/26 02:05:12;;;;;;;3.55;2.83;;;;;;;;;;6007067;29;20053;-82
2022/07/26 02:08:13;;;;;;;6.15;3.40;;;;;;;;;;6007961;29;20052;-81
2022/07/26 02:11:15;;;;;;;4.43;3.00;;;;;;;;;;6024010;29;20061;-80
2022/07/26 02:14:17;;;;;;;4.68;2.60;;;;;;;;;;6013169;29;20072;-80
2022/07/26 02:17:28;;;;;;;8.35;2.90;;;;;;;;;;6025252;29;20057;-81
2022/07/26 02:20:32;;;;;;;5.25;3.20;;;;;;;;;;6019553;29;20132;-81
2022/07/26 02:23:34;;;;;;;6.35;3.00;;;;;;;;;;6019595;29;20464;-81
2022/07/26 02:26:41;;;;;;;3.95;2.70;;;;;;;;;;6023074;29;20053;-80
2022/07/26 02:29:43;;;;;;;5.00;2.60;;;;;;;;;;5995902;29;20049;-80
2022/07/26 02:32:44;;;;;;;4.88;2.40;;;;;;;;;;6010394;29;20054;-80
2022/07/26 02:35:46;;;;;;;5.00;3.13;;;;;;;;;;6019043;29;20046;-81
2022/07/26 02:38:48;;;;;;;6.18;2.92;;;;;;;;;;6008958;29;20042;-81
2022/07/26 02:41:49;;;;;;;3.80;2.67;;;;;;;;;;6008108;29;20063;-82
2022/07/26 02:44:52;;;;;;;4.55;2.97;;;;;;;;;;6014359;29;20044;-81
2022/07/26 02:47:54;;;;;;;4.10;2.95;;;;;;;;;;6029165;29;20417;-81
2022/07/26 02:50:56;;;;;;;5.72;2.75;;;;;;;;;;6026706;29;20565;-81
2022/07/26 02:53:58;;;;;;;3.85;2.63;;;;;;;;;;6011739;29;20057;-81
2022/07/26 02:56:59;;;;;;;3.72;2.75;;;;;;;;;;6009727;29;20554;-81
2022/07/26 03:00:01;;;;;;;4.20;2.33;;;;;;;;;;6011000;29;20547;-80
2022/07/26 03:03:03;;;;;;;6.95;2.92;;;;;;;;;;6018584;29;20049;-81
2022/07/26 03:06:05;;;;;;;4.50;2.40;;;;;;;;;;6009309;29;20102;-81
2022/07/26 03:09:06;;;;;;;4.95;2.10;;;;;;;;;;6027565;29;20052;-81
2022/07/26 03:12:08;;;;;;;6.53;2.05;;;;;;;;;;6024982;29;20051;-79
2022/07/26 03:15:10;;;;;;;4.43;2.50;;;;;;;;;;6021330;29;20105;-81
2022/07/26 03:18:12;;;;;;;3.08;2.20;;;;;;;;;;6010611;29;20045;-81
2022/07/26 03:21:13;;;;;;;3.38;2.25;;;;;;;;;;6024305;29;20121;-80
2022/07/26 03:24:15;;;;;;;2.85;1.90;;;;;;;;;;6024652;29;20068;-80
2022/07/26 03:27:16;;;;;;;4.43;2.15;;;;;;;;;;6021138;29;20041;-80
2022/07/26 03:30:18;;;;;;;3.97;2.30;;;;;;;;;;6025634;29;20081;-81
2022/07/26 03:33:26;;;;;;;5.88;2.40;;;;;;;;;;6008600;29;20054;-81
2022/07/26 03:36:27;;;;;;;4.68;3.03;;;;;;;;;;6017841;29;20038;-81
2022/07/26 03:39:29;;;;;;;5.25;2.58;;;;;;;;;;6027109;29;20051;-80
2022/07/26 03:42:31;;;;;;;4.93;2.28;;;;;;;;;;6008903;29;20121;-79
2022/07/26 03:45:33;;;;;;;4.68;2.63;;;;;;;;;;6006359;29;20129;-80
2022/07/26 03:48:35;;;;;;;4.38;2.47;;;;;;;;;;6007570;29;20073;-80
2022/07/26 03:51:37;;;;;;;6.07;2.80;;;;;;;;;;5992043;29;20041;-81
2022/07/26 03:54:39;;;;;;;4.55;2.80;;;;;;;;;;6011060;29;20810;-79
2022/07/26 03:57:41;;;;;;;6.47;2.85;;;;;;;;;;6000205;29;20418;-81
2022/07/26 04:00:42;;;;;;;4.63;2.60;;;;;;;;;;6004235;29;20421;-79
2022/07/26 04:03:44;;;;;;;5.97;2.78;;;;;;;;;;6020118;29;20140;-81
2022/07/26 04:06:48;;;;;;;2.80;2.33;;;;;;;;;;6021802;29;20049;-82
2022/07/26 04:09:51;;;;;;;3.42;2.55;;;;;;;;;;6006751;29;20505;-81
2022/07/26 04:12:52;;;;;;;4.82;2.75;;;;;;;;;;6025121;29;20057;-83
2022/07/26 04:15:54;;;;;;;4.53;2.55;;;;;;;;;;6003998;29;20132;-81
2022/07/26 04:18:55;;;;;;;3.33;2.50;;;;;;;;;;6022064;29;22391;-81
2022/07/26 04:21:57;;;;;;;5.05;3.00;;;;;;;;;;6027166;29;20082;-82
2022/07/26 04:24:59;;;;;;;4.68;2.90;;;;;;;;;;6004997;29;20506;-82
2022/07/26 04:28:01;;;;;;;5.18;2.97;;;;;;;;;;6011389;29;20061;-79
2022/07/26 04:31:03;;;;;;;4.33;2.77;;;;;;;;;;6002009;29;20082;-81
2022/07/26 04:34:04;;;;;;;3.55;2.17;;;;;;;;;;6003987;29;20038;-81
2022/07/26 04:37:06;;;;;;;8.52;3.53;;;;;;;;;;6020936;29;20056;-81
2022/07/26 04:40:10;;;;;;;5.93;3.50;;;;;;;;;;6007233;29;20042;-79
2022/07/26 04:43:13;;;;;;;3.88;2.72;;;;;;;;;;6019050;29;21657;-81
2022/07/26 04:46:18;;;;;;;;;;;;;;;;;;6008104;29;20520;-78
2022/07/26 04:49:19;;;;;;;5.90;2.42;;;;;;;;;;5987574;29;19932;-78
2022/07/26 04:52:21;;;;;;;3.22;2.13;;;;;;;;;;6006794;29;20132;-80
2022/07/26 04:55:23;;;;;;;7.28;2.70;;;;;;;;;;6022280;29;20313;-81
2022/07/26 04:58:26;;;;;;;3.97;2.33;;;;;;;;;;6008924;29;20237;-80
2022/07/26 05:01:27;;;;;;;5.63;2.33;;;;;;;;;;5998134;29;20183;-78
2022/07/26 05:04:29;;;;;;;4.35;2.35;;;;;;;;;;6018407;29;20045;-77
2022/07/26 05:07:47;;;;;;;5.60;2.75;;;;;;;;;;6024906;29;20045;-81
2022/07/26 05:10:48;;;;;;;6.95;2.53;;;;;;;;;;6010707;29;20178;-81
2022/07/26 05:13:56;;;;;;;5.28;2.00;;;;;;;;;;6010274;29;20037;-79
2022/07/26 05:16:57;;;;;;;6.10;2.08;;;;;;;;;;6007636;29;20500;-80
2022/07/26 05:20:12;;;;;;;2.88;1.98;;;;;;;;;;6008585;29;20525;-79
2022/07/26 05:23:15;;;;;;;3.13;1.85;;;;;;;;;;6028185;29;20194;-80
2022/07/26 05:26:17;;;;;;;4.20;2.13;;;;;;;;;;5996494;29;20065;-79
2022/07/26 05:29:18;;;;;;;3.45;2.17;;;;;;;;;;5993059;29;20041;-81
2022/07/26 05:32:21;;;;;;;5.10;2.50;;;;;;;;;;6007115;29;20133;-80
2022/07/26 05:35:23;;;;;;;4.65;2.30;;;;;;;;;;6004542;29;20053;-81
2022/07/26 05:38:24;;;;;;;6.63;2.45;;;;;;;;;;6029943;29;20056;-79
2022/07/26 05:41:26;;;;;;;2.05;1.83;;;;;;;;;;6020503;29;20042;-80
2022/07/26 05:44:28;;;;;;;6.38;2.60;;;;;;;;;;6011390;29;20543;-78
2022/07/26 05:47:30;;;;;;;5.10;2.25;;;;;;;;;;6012329;29;20771;-78
2022/07/26 05:50:32;;;;;;;2.85;2.17;;;;;;;;;;6019407;29;20048;-79
2022/07/26 05:53:34;;;;;;;4.20;2.35;;;;;;;;;;6024037;29;20056;-77
2022/07/26 05:56:35;;;;;;;5.88;2.30;;;;;;;;;;6012611;29;20065;-77
2022/07/26 05:59:37;;;;;;;6.35;2.28;;;;;;;;;;6011591;29;20417;-77
2022/07/26 06:02:39;;;;;;;4.82;2.38;;;;;;;;;;6017231;29;20056;-77
2022/07/26 06:05:41;;;;;;;3.58;2.38;;;;;;;;;;6010322;29;20182;-75
2022/07/26 06:08:43;;;;;;;4.63;2.38;;;;;;;;;;5998596;29;20056;-79
2022/07/26 06:11:44;;;;;;;4.15;2.33;;;;;;;;;;6010641;29;20054;-81
2022/07/26 06:14:46;;;;;;;5.57;2.42;;;;;;;;;;6024497;29;20454;-77
2022/07/26 06:17:47;;;;;;;5.32;2.42;;;;;;;;;;6021799;29;20133;-79
2022/07/26 06:20:49;;;;;;;3.85;2.40;;;;;;;;;;6001891;29;20235;-76
2022/07/26 06:23:51;;;;;;;2.85;2.55;;;;;;;;;;6018510;29;20054;-76
2022/07/26 06:26:54;;;;;;;4.88;2.78;;;;;;;;;;5999978;29;20053;-76
2022/07/26 06:30:06;;;;;;;5.10;2.23;;;;;;;;;;5999777;29;20050;-76
2022/07/26 06:33:08;;;;;;;4.03;2.08;;;;;;;;;;5990162;29;20049;-76
2022/07/26 06:36:10;;;;;;;3.40;1.90;;;;;;;;;;6019074;29;20238;-76
2022/07/26 06:39:12;;;;;;;5.03;2.30;;;;;;;;;;6019525;29;20045;-76
2022/07/26 06:42:13;;;;;;;2.35;2.00;;;;;;;;;;5996524;29;20045;-77
2022/07/26 06:45:17;;;;;;;3.85;2.00;;;;;;;;;;6012353;29;20056;-77
2022/07/26 06:48:21;;;;;;;2.50;1.98;;;;;;;;;;6016677;29;20045;-77
2022/07/26 06:51:23;;;;;;;7.07;2.40;;;;;;;;;;5996934;29;20661;-76
2022/07/26 06:54:25;;;;;;;6.10;2.00;;;;;;;;;;5982876;29;20042;-77
2022/07/26 06:57:27;;;;;;;4.55;2.13;;;;;;;;;;6014251;29;20049;-77
2022/07/26 07:00:28;;;;;;;6.03;2.30;;;;;;;;;;6015016;29;20119;-76
2022/07/26 07:03:30;;;;;;;3.35;2.30;;;;;;;;;;6009680;29;20101;-76
2022/07/26 07:06:31;;;;;;;6.47;2.33;;;;;;;;;;5995038;29;20056;-76
2022/07/26 07:09:35;;;;;;;5.00;2.30;;;;;;;;;;6017670;29;20137;-77
2022/07/26 07:12:36;;;;;;;4.20;2.28;;;;;;;;;;6011861;29;20218;-76
2022/07/26 07:15:38;;;;;;;3.95;2.30;;;;;;;;;;6001362;29;20045;-76
2022/07/26 07:18:39;;;;;;;4.93;2.90;;;;;;;;;;5986106;29;20051;-77
2022/07/26 07:21:41;;;;;;;4.60;2.20;;;;;;;;;;6016852;29;20057;-75
2022/07/26 07:24:43;;;;;;;5.18;2.50;;;;;;;;;;5998164;29;20072;-76
2022/07/26 07:27:47;;;;;;;5.25;2.50;;;;;;;;;;6015616;29;20424;-76
2022/07/26 07:30:48;;;;;;;6.55;2.47;;;;;;;;;;6017346;29;20056;-76
2022/07/26 07:33:51;;;;;;;5.68;2.90;;;;;;;;;;6014001;29;20057;-76
2022/07/26 07:36:54;;;;;;;;;;;;;;;;;;5987784;29;20076;-76
2022/07/26 07:39:56;;;;;;;4.47;2.80;;;;;;;;;;6016978;29;19928;-76
2022/07/26 07:42:57;;;;;;;4.80;2.60;;;;;;;;;;6014215;29;20045;-76
2022/07/26 07:45:59;;;;;;;3.58;2.72;;;;;;;;;;6015915;29;20065;-76
2022/07/26 07:49:00;;;;;;;3.30;2.47;;;;;;;;;;6011255;29;20102;-77
2022/07/26 07:52:02;;;;;;;3.97;2.45;;;;;;;;;;6015158;29;20045;-77
2022/07/26 07:55:04;;;;;;;4.00;3.13;;;;;;;;;;6014252;29;20506;-76
2022/07/26 07:58:26;;;;;;;5.07;3.22;;;;;;;;;;5994342;29;20163;-77
2022/07/26 08:01:29;;;;;;;3.90;3.10;;;;;;;;;;6017963;29;20194;-75
2022/07/26 08:04:41;;;;;;;4.53;2.90;;;;;;;;;;6010626;29;20066;-76
2022/07/26 08:07:43;;;;;;;3.47;2.90;;;;;;;;;;6001451;29;20126;-76
2022/07/26 08:10:44;;;;;;;6.05;2.92;;;;;;;;;;6015913;29;20057;-75
2022/07/26 08:13:53;;;;;;;4.90;2.78;;;;;;;;;;5998436;29;20046;-76
2022/07/26 08:16:55;;;;;;;4.35;2.92;;;;;;;;;;6015329;29;20065;-76
2022/07/26 08:19:57;;;;;;;3.78;2.60;;;;;;;;;;6008429;29;20053;-76
2022/07/26 08:23:01;;;;;;;6.07;2.85;;;;;;;;;;5998814;29;20140;-76
2022/07/26 08:26:02;;;;;;;4.10;2.72;;;;;;;;;;6014489;29;20049;-76
2022/07/26 08:29:07;;;;;;;3.30;2.85;;;;;;;;;;6000962;29;20050;-76
2022/07/26 08:32:09;;;;;;;4.22;2.80;;;;;;;;;;6014682;29;20124;-75
2022/07/26 08:35:11;;;;;;;6.85;3.85;;;;;;;;;;6011746;29;20481;-76
2022/07/26 08:38:20;;;;;;;5.75;3.40;;;;;;;;;;6011374;29;20509;-76
2022/07/26 08:41:22;;;;;;;4.80;3.60;;;;;;;;;;6013074;29;20525;-76
2022/07/26 08:44:23;;;;;;;5.37;3.53;;;;;;;;;;6010438;29;20045;-76
2022/07/26 08:47:25;;;;;;;6.18;3.83;;;;;;;;;;6004739;29;20641;-78
2022/07/26 08:50:41;;;;;;;5.43;3.78;;;;;;;;;;6006843;29;20064;-76
2022/07/26 08:53:42;;;;;;;5.80;4.30;;;;;;;;;;5993611;29;20095;-77
2022/07/26 08:56:51;;;;;;;4.97;3.97;;;;;;;;;;5998899;29;20534;-76
2022/07/26 09:00:12;;;;;;;6.43;3.95;;;;;;;;;;6017164;29;20050;-76
2022/07/26 09:03:24;;;;;;;5.47;3.88;;;;;;;;;;5986285;29;20460;-75
2022/07/26 09:06:26;;;;;;;5.40;3.75;;;;;;;;;;6010864;29;20045;-76
2022/07/26 09:09:29;;;;;;;;;;;;;;;;;;6006288;29;20093;-76
2022/07/26 09:12:31;;;;;;;6.38;3.75;;;;;;;;;;5999760;29;19930;-76
2022/07/26 09:15:33;;;;;;;7.82;3.95;;;;;;;;;;6002635;29;20553;-76
2022/07/26 09:18:35;;;;;;;4.50;3.80;;;;;;;;;;6000879;29;20113;-77
2022/07/26 09:21:36;;;;;;;6.68;4.15;;;;;;;;;;6015883;29;20046;-76
2022/07/26 09:24:44;;;;;;;6.72;4.60;;;;;;;;;;5998477;29;20073;-76
2022/07/26 09:27:45;;;;;;;7.25;4.65;;;;;;;;;;6013348;29;20136;-76
2022/07/26 09:30:52;;;;;;;5.93;4.80;;;;;;;;;;6001474;29;20101;-75
2022/07/26 09:33:53;;;;;;;6.35;4.50;;;;;;;;;;5995862;29;20050;-76
2022/07/26 09:36:55;;;;;;;6.00;4.70;;;;;;;;;;6016494;29;20481;-76
2022/07/26 09:39:59;;;;;;;7.90;4.55;;;;;;;;;;5996090;29;20041;-76
2022/07/26 09:43:04;;;;;;;6.50;4.50;;;;;;;;;;5999463;29;20453;-76
2022/07/26 09:46:06;;;;;;;5.68;4.60;;;;;;;;;;6015114;29;20041;-77
2022/07/26 09:49:17;;;;;;;6.68;4.50;;;;;;;;;;6017620;29;20643;-76
2022/07/26 09:52:20;;;;;;;6.43;4.82;;;;;;;;;;6001869;29;20061;-76
2022/07/26 09:55:22;;;;;;;6.43;5.20;;;;;;;;;;6014927;29;20050;-76
2022/07/26 09:58:26;;;;;;;7.72;5.38;;;;;;;;;;6004189;29;20117;-76
2022/07/26 10:01:28;;;;;;;7.63;5.33;;;;;;;;;;6013527;29;20189;-77
2022/07/26 10:04:30;;;;;;;8.82;5.55;;;;;;;;;;5996138;29;20524;-76
2022/07/26 10:07:32;;;;;;;10.35;6.22;;;;;;;;;;6017701;29;20155;-76
2022/07/26 10:10:46;;;;;;;11.10;7.30;;;;;;;;;;5986995;29;20105;-76
2022/07/26 10:13:48;;;;;;;9.30;7.28;;;;;;;;;;6010654;29;20109;-76
2022/07/26 10:16:49;;;;;;;11.07;7.53;;;;;;;;;;6003716;29;20057;-76
2022/07/26 10:19:54;;;;;;;7.97;7.10;;;;;;;;;;5993942;29;20132;-75
2022/07/26 10:22:56;;;;;;;9.27;7.32;;;;;;;;;;6004247;29;20482;-77
2022/07/26 10:25:58;;;;;;;11.32;7.07;;;;;;;;;;6019211;29;20077;-76
2022/07/26 10:29:16;;;;;;;12.55;6.90;;;;;;;;;;6003882;29;20476;-76
2022/07/26 10:32:19;;;;;;;10.18;6.50;;;;;;;;;;6011321;29;20061;-75
2022/07/26 10:35:33;;;;;;;10.65;7.03;;;;;;;;;;6018055;29;20634;-76
2022/07/26 10:38:36;;;;;;;7.47;6.45;;;;;;;;;;6020287;29;20162;-76
2022/07/26 10:41:46;;;;;;;7.35;6.50;;;;;;;;;;6016376;29;20395;-76
2022/07/26 10:44:48;;;;;;;9.32;6.35;;;;;;;;;;6019379;29;20136;-76
2022/07/26 10:48:19;;;;;;;9.38;7.03;;;;;;;;;;6013940;29;20050;-76
2022/07/26 10:51:34;;;;;;;9.57;6.80;;;;;;;;;;6003306;29;20044;-77
2022/07/26 10:54:57;;;;;;;7.07;6.38;;;;;;;;;;6009197;29;20125;-76
2022/07/26 10:57:59;;;;;;;9.07;7.10;;;;;;;;;;6006520;29;22170;-76
2022/07/26 11:01:03;;;;;;;10.00;6.43;;;;;;;;;;6005347;29;20119;-76
2022/07/26 11:04:06;;;;;;;7.13;6.15;;;;;;;;;;6008376;29;20054;-77
2022/07/26 11:07:08;;;;;;;7.68;6.10;;;;;;;;;;5980281;29;20050;-77
2022/07/26 11:10:09;;;;;;;7.63;6.13;;;;;;;;;;6017958;29;20148;-80
2022/07/26 11:13:20;;;;;;;6.68;5.32;;;;;;;;;;6023445;29;20576;-78
2022/07/26 11:16:22;;;;;;;5.85;5.00;;;;;;;;;;6015568;29;20041;-79
2022/07/26 11:19:25;;;;;;;8.30;5.18;;;;;;;;;;6023288;29;20053;-79
2022/07/26 11:22:34;;;;;;;5.67;5.03;;;;;;;;;;6022431;29;20485;-79
2022/07/26 11:25:36;;;;;;;6.30;5.25;;;;;;;;;;5994576;29;20053;-79
2022/07/26 11:28:54;;;;;;;6.18;4.85;;;;;;;;;;6002960;29;20058;-79
2022/07/26 11:31:56;;;;;;;6.70;5.10;;;;;;;;;;6021857;29;20069;-79
2022/07/26 11:35:14;;;;;;;7.60;5.22;;;;;;;;;;6007966;29;20041;-79
2022/07/26 11:38:16;;;;;;;6.20;4.60;;;;;;;;;;6020987;29;20049;-79
2022/07/26 11:41:22;;;;;;;6.70;4.60;;;;;;;;;;6021327;29;20163;-78
2022/07/26 11:44:35;;;;;;;6.30;4.28;;;;;;;;;;6018106;29;20054;-79
2022/07/26 11:47:37;;;;;;;6.63;4.50;;;;;;;;;;6021730;29;20128;-78
2022/07/26 11:50:39;;;;;;;5.35;3.92;;;;;;;;;;6021495;29;20045;-78
2022/07/26 11:53:41;;;;;;;6.97;4.30;;;;;;;;;;6023185;29;20067;-80
2022/07/26 11:56:57;;;;;;;5.05;4.15;;;;;;;;;;6025371;29;20372;-79
2022/07/26 12:00:00;;;;;;;4.60;3.75;;;;;;;;;;6023545;29;20135;-78
2022/07/26 12:03:11;;;;;;;3.95;3.35;;;;;;;;;;6023269;29;20077;-79
2022/07/26 12:06:16;;;;;;;3.42;3.13;;;;;;;;;;6020000;29;20513;-80
2022/07/26 12:09:49;;;;;;;3.65;3.25;;;;;;;;;;6026623;29;20042;-80
2022/07/26 12:13:14;;;;;;;4.82;3.35;;;;;;;;;;5996296;29;20076;-78
2022/07/26 12:16:38;;;;;;;2.92;2.65;;;;;;;;;;6020452;29;20109;-80
2022/07/26 12:19:40;;;;;;;4.60;2.90;;;;;;;;;;6014860;29;20110;-79
2022/07/26 12:23:04;;;;;;;5.30;2.80;;;;;;;;;;6024483;29;20181;-79
2022/07/26 12:26:27;;;;;;;3.90;2.63;;;;;;;;;;6005449;29;20046;-78
2022/07/26 12:29:34;;;;;;;3.57;3.00;;;;;;;;;;6007666;29;20166;-80
2022/07/26 12:32:39;;;;;;;4.20;2.75;;;;;;;;;;6007568;29;20136;-78
2022/07/26 12:35:41;;;;;;;4.07;3.35;;;;;;;;;;6022413;29;20045;-80
2022/07/26 12:38:43;;;;;;;5.35;3.35;;;;;;;;;;6022099;29;20133;-79
2022/07/26 12:41:49;;;;;;;4.97;3.28;;;;;;;;;;6022739;29;20084;-79
2022/07/26 12:44:51;;;;;;;3.97;3.20;;;;;;;;;;6006419;29;20052;-79
2022/07/26 12:47:54;;;;;;;6.67;3.40;;;;;;;;;;6006444;29;20536;-79
2022/07/26 12:50:57;;;;;;;4.63;3.40;;;;;;;;;;6017418;29;20068;-79
2022/07/26 12:53:58;;;;;;;5.97;3.13;;;;;;;;;;6009731;29;20049;-80
2022/07/26 12:57:00;;;;;;;7.23;4.93;;;;;;;;;;6003104;29;20045;-80
2022/07/26 13:00:04;;;;;;;3.50;3.20;;;;;;;;;;6021035;29;20582;-80
2022/07/26 13:03:05;;;;;;;3.38;2.85;;;;;;;;;;6009423;29;20569;-79
2022/07/26 13:06:07;;;;;;;4.93;3.78;;;;;;;;;;6023955;29;20060;-80
2022/07/26 13:09:08;;;;;;;4.43;3.93;;;;;;;;;;6021293;29;20132;-80
2022/07/26 13:12:11;;;;;;;5.70;4.13;;;;;;;;;;6009839;29;20053;-80
2022/07/26 13:15:13;;;;;;;4.30;3.90;;;;;;;;;;6027219;29;20060;-79
2022/07/26 13:18:14;;;;;;;5.50;4.50;;;;;;;;;;6016065;29;20136;-79
2022/07/26 13:21:16;;;;;;;6.13;3.90;;;;;;;;;;6023516;29;20105;-79
2022/07/26 13:24:18;;;;;;;6.00;4.40;;;;;;;;;;6005936;29;20101;-79
2022/07/26 13:27:20;;;;;;;4.90;3.50;;;;;;;;;;6026559;29;20045;-80
2022/07/26 13:30:22;;;;;;;6.35;3.97;;;;;;;;;;6020003;29;20631;-80
2022/07/26 13:33:23;;;;;;;5.28;3.92;;;;;;;;;;5990952;29;20045;-78
2022/07/26 13:36:25;;;;;;;5.38;3.92;;;;;;;;;;6000528;29;20049;-77
2022/07/26 13:39:27;;;;;;;5.63;4.27;;;;;;;;;;6018200;29;20045;-77
2022/07/26 13:42:32;;;;;;;4.95;3.78;;;;;;;;;;6016061;29;20997;-79
2022/07/26 13:45:33;;;;;;;4.30;3.90;;;;;;;;;;6010745;29;20042;-78
2022/07/26 13:48:35;;;;;;;5.55;4.30;;;;;;;;;;5999625;29;20053;-78
2022/07/26 13:51:56;;;;;;;5.93;3.87;;;;;;;;;;6015002;29;20924;-78
2022/07/26 13:54:57;;;;;;;8.80;3.92;;;;;;;;;;6001603;29;20045;-78
2022/07/26 13:57:59;;;;;;;4.40;2.93;;;;;;;;;;6012622;29;20636;-78
2022/07/26 14:01:02;;;;;;;4.80;3.00;;;;;;;;;;6000602;29;21348;-79
2022/07/26 14:04:05;;;;;;;3.45;3.10;;;;;;;;;;6006689;29;20057;-77
2022/07/26 14:07:07;;;;;;;5.68;2.80;;;;;;;;;;5982196;29;20072;-78
2022/07/26 14:10:09;;;;;;;3.07;2.30;;;;;;;;;;6017733;29;20053;-77
2022/07/26 14:13:11;;;;;;;4.40;2.80;;;;;;;;;;6011054;29;20045;-76
2022/07/26 14:16:12;;;;;;;4.15;3.03;;;;;;;;;;5993510;29;20205;-76
2022/07/26 14:19:14;;;;;;;3.38;2.65;;;;;;;;;;5992066;29;20597;-77
2022/07/26 14:22:16;;;;;;;5.10;2.55;;;;;;;;;;6010510;29;20105;-76
2022/07/26 14:25:27;;;;;;;2.90;2.70;;;;;;;;;;5992141;29;20045;-77
2022/07/26 14:28:28;;;;;;;4.03;3.28;;;;;;;;;;6008130;29;20928;-77
2022/07/26 14:31:31;;;;;;;5.13;3.10;;;;;;;;;;6010498;29;20208;-76
2022/07/26 14:34:32;;;;;;;5.63;2.92;;;;;;;;;;6009122;29;20049;-75
2022/07/26 14:37:35;;;;;;;7.70;3.03;;;;;;;;;;6013242;29;20514;-76
2022/07/26 14:40:46;;;;;;;6.32;2.53;;;;;;;;;;6015244;29;20076;-77
2022/07/26 14:43:48;;;;;;;3.50;2.70;;;;;;;;;;6000346;29;20112;-77
2022/07/26 14:46:56;;;;;;;3.40;2.60;;;;;;;;;;5999407;29;20049;-76
2022/07/26 14:49:58;;;;;;;2.83;2.60;;;;;;;;;;6001218;29;20469;-77
2022/07/26 14:53:09;;;;;;;3.90;2.58;;;;;;;;;;6001225;29;20490;-77
2022/07/26 14:56:10;;;;;;;7.22;2.38;;;;;;;;;;5997982;29;20068;-77
2022/07/26 14:59:12;;;;;;;4.18;2.70;;;;;;;;;;6014120;29;20053;-77
2022/07/26 15:02:14;;;;;;;5.00;2.87;;;;;;;;;;6001176;29;20057;-76
2022/07/26 15:05:16;;;;;;;2.45;2.28;;;;;;;;;;5987384;29;20548;-75
2022/07/26 15:08:18;;;;;;;2.75;2.50;;;;;;;;;;6019376;29;20132;-77
2022/07/26 15:11:19;;;;;;;7.30;2.47;;;;;;;;;;6002181;29;20186;-76
2022/07/26 15:14:21;;;;;;;4.18;2.28;;;;;;;;;;5996609;29;21061;-77
2022/07/26 15:17:23;;;;;;;6.88;2.55;;;;;;;;;;6003724;29;20113;-76
2022/07/26 15:20:25;;;;;;;3.17;2.33;;;;;;;;;;6001166;29;20049;-77
2022/07/26 15:23:26;;;;;;;3.00;2.55;;;;;;;;;;6013601;29;20527;-77
2022/07/26 15:26:28;;;;;;;4.43;2.63;;;;;;;;;;5988921;29;20414;-76
2022/07/26 15:29:30;;;;;;;6.22;3.28;;;;;;;;;;5994209;29;20069;-74
2022/07/26 15:32:33;;;;;;;4.65;2.90;;;;;;;;;;6007097;29;20678;-75
2022/07/26 15:35:39;;;;;;;5.47;2.78;;;;;;;;;;6003101;29;20045;-77
2022/07/26 15:38:44;;;;;;;2.85;2.60;;;;;;;;;;6004780;29;20057;-75
2022/07/26 15:41:47;;;;;;;4.35;2.33;;;;;;;;;;6001118;29;20046;-76
2022/07/26 15:44:49;;;;;;;5.45;2.80;;;;;;;;;;5988212;29;20054;-77
2022/07/26 15:47:51;;;;;;;3.72;2.80;;;;;;;;;;6004307;29;20511;-77
2022/07/26 15:51:00;;;;;;;3.42;2.70;;;;;;;;;;6008734;29;20130;-77
2022/07/26 15:54:02;;;;;;;;;;;;;;;;;;6001140;29;20053;-78
2022/07/26 15:57:03;;;;;;;2.60;2.40;;;;;;;;;;6003015;29;19931;-77
2022/07/26 16:00:07;;;;;;;3.70;2.80;;;;;;;;;;6018156;29;20048;-78
2022/07/26 16:03:12;;;;;;;4.85;2.60;;;;;;;;;;6018866;29;20399;-78
2022/07/26 16:06:14;;;;;;;5.80;2.80;;;;;;;;;;6003993;29;20686;-78
2022/07/26 16:09:16;;;;;;;4.22;2.85;;;;;;;;;;6019809;29;20445;-77
2022/07/26 16:12:31;;;;;;;4.57;2.90;;;;;;;;;;6008339;24;20140;-89
2022/07/26 16:15:33;;;;;;;3.13;2.92;;;;;;;;;;5969576;29;20042;-77
2022/07/26 16:18:35;;;;;;;3.73;2.97;;;;;;;;;;5995185;29;21091;-77
2022/07/26 16:21:43;;;;;;;3.10;2.75;;;;;;;;;;5977883;29;20581;-77
2022/07/26 16:24:44;;;;;;;4.53;3.38;;;;;;;;;;5979291;29;20058;-77
2022/07/26 16:27:46;;;;;;;4.97;2.72;;;;;;;;;;5991357;29;20050;-77
2022/07/26 16:30:48;;;;;;;7.93;3.60;;;;;;;;;;5982093;29;20050;-77
2022/07/26 16:33:49;;;;;;;4.38;2.78;;;;;;;;;;5993420;29;20062;-78
2022/07/26 16:36:51;;;;;;;3.40;3.10;;;;;;;;;;5992231;29;20059;-77
2022/07/26 16:39:54;;;;;;;3.47;3.20;;;;;;;;;;5977567;29;20140;-77
2022/07/26 16:42:56;;;;;;;6.88;3.25;;;;;;;;;;5975082;29;20763;-77
2022/07/26 16:45:57;;;;;;;4.77;2.57;;;;;;;;;;5973515;29;20050;-77
2022/07/26 16:48:59;;;;;;;4.00;2.78;;;;;;;;;;5991389;29;20053;-79
2022/07/26 16:52:01;;;;;;;3.50;2.72;;;;;;;;;;5978051;29;20054;-78
2022/07/26 16:55:03;;;;;;;3.63;3.10;;;;;;;;;;5996678;29;20069;-78
2022/07/26 16:58:05;;;;;;;3.50;3.20;;;;;;;;;;5995859;29;20060;-78
2022/07/26 17:01:07;;;;;;;3.28;2.97;;;;;;;;;;5980646;29;20186;-77
2022/07/26 17:04:09;;;;;;;3.40;3.10;;;;;;;;;;5994963;29;20046;-78
2022/07/26 17:07:10;;;;;;;2.92;2.72;;;;;;;;;;6002263;29;20419;-78
2022/07/26 17:10:26;;;;;;;4.70;3.17;;;;;;;;;;6002916;29;20097;-78
2022/07/26 17:13:28;;;;;;;5.10;3.47;;;;;;;;;;5978621;29;20137;-77
2022/07/26 17:16:30;;;;;;;3.10;2.80;;;;;;;;;;6001259;29;20454;-78
2022/07/26 17:19:32;;;;;;;3.95;2.88;;;;;;;;;;5992851;29;20054;-78
2022/07/26 17:22:33;;;;;;;3.65;2.97;;;;;;;;;;5982259;29;20065;-78
2022/07/26 17:25:35;;;;;;;4.55;2.97;;;;;;;;;;5994534;29;20178;-78
2022/07/26 17:28:37;;;;;;;4.15;2.97;;;;;;;;;;6001924;29;20149;-78
2022/07/26 17:31:38;;;;;;;4.68;2.90;;;;;;;;;;5994563;29;20140;-78
2022/07/26 17:34:40;;;;;;;5.47;3.20;;;;;;;;;;5980021;29;20133;-78
2022/07/26 17:37:42;;;;;;;3.60;3.20;;;;;;;;;;5956336;29;20077;-78
2022/07/26 17:40:43;;;;;;;4.80;3.45;;;;;;;;;;5994997;29;20132;-77
2022/07/26 17:43:47;;;;;;;5.75;3.10;;;;;;;;;;5984408;29;20061;-78
2022/07/26 17:46:55;;;;;;;4.13;2.95;;;;;;;;;;5978635;29;20070;-77
2022/07/26 17:50:02;;;;;;;4.43;3.25;;;;;;;;;;5964718;29;20550;-77
2022/07/26 17:53:24;;;;;;;5.65;3.45;;;;;;;;;;5994916;29;20147;-78
2022/07/26 17:56:35;;;;;;;4.25;3.40;;;;;;;;;;5986316;29;20058;-78
2022/07/26 17:59:36;;;;;;;3.88;3.22;;;;;;;;;;5982362;29;20043;-78
2022/07/26 18:02:38;;;;;;;3.78;3.17;;;;;;;;;;6002186;29;20065;-77
2022/07/26 18:05:40;;;;;;;4.28;3.22;;;;;;;;;;5989847;29;20105;-78
2022/07/26 18:08:42;;;;;;;4.05;3.15;;;;;;;;;;5990147;29;20042;-77
2022/07/26 18:11:44;;;;;;;3.25;3.03;;;;;;;;;;5998610;29;20425;-78
2022/07/26 18:14:45;;;;;;;3.88;3.30;;;;;;;;;;5997666;29;20098;-78
2022/07/26 18:17:47;;;;;;;5.20;3.58;;;;;;;;;;5985888;29;20512;-78
2022/07/26 18:20:49;;;;;;;3.83;3.43;;;;;;;;;;5987360;29;20109;-79
2022/07/26 18:23:51;;;;;;;3.53;3.27;;;;;;;;;;5968860;29;20137;-79
2022/07/26 18:27:13;;;;;;;3.47;3.13;;;;;;;;;;5983021;29;20065;-83